Time;durP1;ratioP1;P1;durP2;ratioP2;P2;SDS_P1;SDS_P2;PMS_P1;PMS_P2;Temp;Humidity;BMP_temperature;BMP_pressure;BME280_temperature;BME280_humidity;BME280_pressure;Samples;Min_cycle;Max_cycle;Signal;HPM_P1;HPM_P2
2024/01/11 00:01:39;;;;;;;30.47;15.13;;;-3.90;99.90;;;;;;4976791;28;20059;-79
2024/01/11 00:04:05;;;;;;;24.37;12.73;;;-3.90;99.90;;;;;;4978530;28;20038;-78
2024/01/11 00:06:32;;;;;;;27.87;13.67;;;-3.90;99.90;;;;;;4978967;28;20508;-79
2024/01/11 00:08:58;;;;;;;26.30;12.73;;;-4.00;99.90;;;;;;4993129;28;20626;-77
2024/01/11 00:11:25;;;;;;;25.27;12.43;;;-4.00;99.90;;;;;;4979062;28;20473;-76
2024/01/11 00:13:51;;;;;;;25.80;12.77;;;-4.00;99.90;;;;;;4962644;28;20030;-79
2024/01/11 00:16:17;;;;;;;25.03;11.70;;;-4.00;99.90;;;;;;4980062;28;20480;-78
2024/01/11 00:18:44;;;;;;;24.20;12.10;;;-4.00;99.90;;;;;;4961161;28;20054;-78
2024/01/11 00:21:11;;;;;;;23.10;10.93;;;-4.10;99.90;;;;;;4963119;28;20034;-79
2024/01/11 00:23:37;;;;;;;25.30;12.03;;;-4.10;99.90;;;;;;4961561;28;20035;-78
2024/01/11 00:26:04;;;;;;;33.30;12.70;;;-4.10;99.90;;;;;;4978130;28;20382;-80
2024/01/11 00:28:30;;;;;;;27.73;13.03;;;-4.10;99.90;;;;;;4963804;28;20034;-79
2024/01/11 00:30:56;;;;;;;24.77;11.93;;;-4.20;99.90;;;;;;4982399;28;21043;-80
2024/01/11 00:33:23;;;;;;;26.40;12.23;;;-4.20;99.90;;;;;;4997489;28;20046;-75
2024/01/11 00:35:49;;;;;;;22.40;11.20;;;-4.20;99.90;;;;;;4981597;28;20039;-79
2024/01/11 00:38:15;;;;;;;20.67;10.07;;;-4.30;99.90;;;;;;4979675;28;20038;-79
2024/01/11 00:40:42;;;;;;;29.53;14.33;;;-4.30;99.90;;;;;;4982747;28;20033;-78
2024/01/11 00:43:08;;;;;;;24.80;13.03;;;-4.30;99.90;;;;;;4980394;28;20100;-79
2024/01/11 00:45:35;;;;;;;24.40;11.37;;;-4.30;99.90;;;;;;4981085;28;20030;-78
2024/01/11 00:48:02;;;;;;;24.17;11.53;;;-4.30;99.90;;;;;;4982335;28;20068;-79
2024/01/11 00:50:28;;;;;;;28.33;13.60;;;-4.30;99.90;;;;;;4997383;28;20547;-80
2024/01/11 00:52:55;;;;;;;19.90;10.63;;;-4.30;99.90;;;;;;4965159;28;20031;-79
2024/01/11 00:55:21;;;;;;;23.30;11.00;;;-4.40;99.90;;;;;;4964912;28;20038;-77
2024/01/11 00:57:48;;;;;;;24.67;12.73;;;-4.40;99.90;;;;;;5013210;28;20335;-79
2024/01/11 01:00:14;;;;;;;29.53;13.93;;;-4.50;99.90;;;;;;4980639;28;20477;-79
2024/01/11 01:02:40;;;;;;;24.03;10.13;;;-4.50;99.90;;;;;;4997692;28;20386;-80
2024/01/11 01:05:07;;;;;;;26.93;13.07;;;-4.50;99.90;;;;;;4974925;28;20365;-78
2024/01/11 01:07:34;;;;;;;24.03;11.63;;;-4.50;99.90;;;;;;4981393;28;20041;-78
2024/01/11 01:10:00;;;;;;;21.77;10.13;;;-4.50;99.90;;;;;;4981291;28;20037;-78
2024/01/11 01:12:27;;;;;;;23.97;11.17;;;-4.50;99.90;;;;;;4997132;28;20030;-78
2024/01/11 01:14:53;;;;;;;24.00;12.43;;;-4.50;99.90;;;;;;4980266;28;20048;-79
2024/01/11 01:17:19;;;;;;;28.93;13.07;;;-4.60;99.90;;;;;;4994433;28;20056;-77
2024/01/11 01:19:46;;;;;;;26.17;12.27;;;-4.60;99.90;;;;;;5013001;28;20046;-78
2024/01/11 01:22:12;;;;;;;22.30;10.73;;;-4.60;99.90;;;;;;4981432;28;20048;-78
2024/01/11 01:24:38;;;;;;;20.20;9.93;;;-4.60;99.90;;;;;;4964107;28;20039;-78
2024/01/11 01:27:05;;;;;;;21.93;10.43;;;-4.60;99.90;;;;;;4982447;28;20498;-78
2024/01/11 01:29:31;;;;;;;22.20;9.93;;;-4.70;99.90;;;;;;4963735;28;20038;-77
2024/01/11 01:31:57;;;;;;;20.30;10.30;;;-4.70;99.90;;;;;;4963089;28;20034;-78
2024/01/11 01:34:24;;;;;;;26.93;12.80;;;-4.70;99.90;;;;;;4963896;28;20034;-77
2024/01/11 01:36:50;;;;;;;24.27;11.20;;;-4.70;99.90;;;;;;4946551;28;20053;-78
2024/01/11 01:39:17;;;;;;;28.10;12.60;;;-4.70;99.90;;;;;;4945520;28;20134;-77
2024/01/11 01:41:43;;;;;;;20.27;10.23;;;-4.80;99.90;;;;;;5012311;28;20030;-76
2024/01/11 01:44:09;;;;;;;20.40;9.30;;;-4.80;99.90;;;;;;4981225;28;20795;-77
2024/01/11 01:46:36;;;;;;;22.77;11.93;;;-4.80;99.90;;;;;;4996255;28;20046;-78
2024/01/11 01:49:03;;;;;;;24.30;12.17;;;-4.80;99.90;;;;;;4982246;28;20041;-78
2024/01/11 01:51:32;;;;;;;23.43;12.47;;;-4.80;99.90;;;;;;5016174;28;20049;-75
2024/01/11 01:54:00;;;;;;;23.73;11.93;;;-4.80;99.90;;;;;;4997986;28;20384;-78
2024/01/11 01:56:27;;;;;;;22.07;10.50;;;-4.90;99.90;;;;;;4982948;28;20041;-76
2024/01/11 01:58:54;;;;;;;17.77;9.17;;;-4.90;99.90;;;;;;4964087;28;20042;-77
2024/01/11 02:01:22;;;;;;;22.90;10.70;;;-4.90;99.90;;;;;;4980747;28;20489;-77
2024/01/11 02:03:51;;;;;;;30.37;13.20;;;-4.90;99.90;;;;;;5011602;28;20061;-77
2024/01/11 02:06:21;;;;;;;22.97;11.97;;;-4.90;99.90;;;;;;4963084;28;20512;-74
2024/01/11 02:08:51;;;;;;;25.60;12.23;;;-4.90;99.90;;;;;;4994407;28;20397;-77
2024/01/11 02:11:19;;;;;;;25.17;13.03;;;-4.90;99.90;;;;;;4979561;28;20042;-77
2024/01/11 02:13:46;;;;;;;21.77;11.83;;;-4.90;99.90;;;;;;4949530;28;20030;-76
2024/01/11 02:16:13;;;;;;;28.87;14.17;;;-4.90;99.90;;;;;;4979236;28;20042;-76
2024/01/11 02:18:40;;;;;;;24.30;12.40;;;-4.90;99.90;;;;;;4980862;28;20037;-77
2024/01/11 02:21:09;;;;;;;26.60;11.80;;;-4.90;99.90;;;;;;4977992;28;20462;-77
2024/01/11 02:23:46;;;;;;;25.27;12.90;;;-4.90;99.90;;;;;;4979532;28;20382;-77
2024/01/11 02:26:16;;;;;;;24.77;13.10;;;-4.90;99.90;;;;;;4983256;28;20609;-76
2024/01/11 02:28:45;;;;;;;23.27;11.80;;;-5.00;99.90;;;;;;4996231;28;21360;-77
2024/01/11 02:31:14;;;;;;;25.20;14.53;;;-5.00;99.90;;;;;;4964415;28;20038;-74
2024/01/11 02:33:41;;;;;;;21.80;10.87;;;-5.00;99.90;;;;;;4997878;28;20042;-76
2024/01/11 02:36:07;;;;;;;19.17;9.73;;;-5.00;99.90;;;;;;4980940;28;20038;-77
2024/01/11 02:38:35;;;;;;;20.27;10.60;;;-5.00;99.90;;;;;;4950127;28;20038;-76
2024/01/11 02:41:02;;;;;;;21.63;11.37;;;-5.00;99.90;;;;;;4978390;28;20492;-76
2024/01/11 02:43:28;;;;;;;24.53;11.97;;;-5.00;99.90;;;;;;4979906;28;20496;-77
2024/01/11 02:45:59;;;;;;;25.83;10.97;;;-5.00;99.90;;;;;;4982711;28;20049;-74
2024/01/11 02:48:29;;;;;;;28.77;14.20;;;-5.00;99.90;;;;;;4978263;28;20385;-75
2024/01/11 02:50:59;;;;;;;21.37;10.60;;;-5.00;99.90;;;;;;4979909;28;20031;-77
2024/01/11 02:53:25;;;;;;;20.93;10.60;;;-5.00;99.90;;;;;;4962979;28;20034;-77
2024/01/11 02:55:51;;;;;;;19.27;8.13;;;-5.10;99.90;;;;;;4995013;28;20334;-77
2024/01/11 02:58:18;;;;;;;21.57;10.00;;;-5.10;99.90;;;;;;4979635;28;20335;-76
2024/01/11 03:00:45;;;;;;;19.83;8.80;;;-5.10;99.90;;;;;;4994915;28;20026;-77
2024/01/11 03:03:11;;;;;;;19.83;8.63;;;-5.20;99.90;;;;;;4978695;28;20360;-77
2024/01/11 03:05:38;;;;;;;17.03;8.80;;;-5.20;99.90;;;;;;4981588;28;20061;-77
2024/01/11 03:08:04;;;;;;;22.43;10.07;;;-5.20;99.90;;;;;;4980207;28;20041;-76
2024/01/11 03:10:30;;;;;;;23.13;11.83;;;-5.20;99.90;;;;;;4979227;28;20034;-74
2024/01/11 03:12:58;;;;;;;28.17;14.40;;;-5.20;99.90;;;;;;4978380;28;20049;-76
2024/01/11 03:15:24;;;;;;;23.53;12.77;;;-5.20;99.90;;;;;;4980568;28;20034;-77
2024/01/11 03:17:50;;;;;;;25.50;12.00;;;-5.20;99.90;;;;;;4978519;28;20034;-76
2024/01/11 03:20:20;;;;;;;26.30;11.97;;;-5.20;99.90;;;;;;4965375;28;20655;-74
2024/01/11 03:22:46;;;;;;;27.20;14.33;;;-5.20;99.90;;;;;;4979186;28;20394;-76
2024/01/11 03:25:13;;;;;;;31.67;13.17;;;-5.20;99.90;;;;;;4980097;28;20053;-73
2024/01/11 03:27:39;;;;;;;24.37;12.17;;;-5.20;99.90;;;;;;4963939;28;20045;-77
2024/01/11 03:30:06;;;;;;;24.50;12.17;;;-5.20;99.90;;;;;;5010813;28;20045;-77
2024/01/11 03:32:32;;;;;;;26.40;11.83;;;-5.20;99.90;;;;;;4995117;28;20045;-76
2024/01/11 03:34:59;;;;;;;28.63;13.87;;;-5.20;99.90;;;;;;4962219;28;20030;-77
2024/01/11 03:37:25;;;;;;;19.40;10.10;;;-5.20;99.90;;;;;;4977573;28;20038;-76
2024/01/11 03:39:51;;;;;;;25.60;12.97;;;-5.20;99.90;;;;;;4961393;28;20050;-76
2024/01/11 03:42:18;;;;;;;25.80;12.40;;;-5.30;99.90;;;;;;4994849;28;20034;-76
2024/01/11 03:44:44;;;;;;;30.83;13.90;;;-5.30;99.90;;;;;;4979698;28;20030;-78
2024/01/11 03:47:10;;;;;;;26.30;12.60;;;-5.30;99.90;;;;;;5010576;28;20579;-77
2024/01/11 03:49:37;;;;;;;28.47;14.13;;;-5.30;99.90;;;;;;5009476;28;20045;-76
2024/01/11 03:52:03;;;;;;;27.33;14.10;;;-5.30;99.90;;;;;;4975019;28;21185;-77
2024/01/11 03:54:29;;;;;;;23.90;12.33;;;-5.30;99.90;;;;;;4978132;28;20057;-78
2024/01/11 03:56:56;;;;;;;29.40;15.17;;;-5.30;99.90;;;;;;4994919;28;20041;-77
2024/01/11 03:59:23;;;;;;;22.83;12.60;;;-5.40;99.90;;;;;;4995317;28;20030;-76
2024/01/11 04:01:49;;;;;;;33.53;16.17;;;-5.40;99.90;;;;;;4994802;28;20038;-76
2024/01/11 04:04:15;;;;;;;27.50;13.33;;;-5.40;99.90;;;;;;4985153;28;20042;-77
2024/01/11 04:06:42;;;;;;;28.40;13.77;;;-5.40;99.90;;;;;;5014923;28;20516;-76
2024/01/11 04:09:08;;;;;;;25.10;11.80;;;-5.40;99.90;;;;;;5017024;28;20053;-77
2024/01/11 04:11:34;;;;;;;28.10;12.23;;;-5.40;99.90;;;;;;4965290;28;20034;-73
2024/01/11 04:14:01;;;;;;;24.70;12.57;;;-5.40;99.90;;;;;;4963122;28;20037;-78
2024/01/11 04:16:27;;;;;;;22.20;10.30;;;-5.40;99.90;;;;;;4980717;28;20037;-77
2024/01/11 04:18:53;;;;;;;25.83;12.77;;;-5.40;99.90;;;;;;4993908;28;20046;-76
2024/01/11 04:21:28;;;;;;;30.37;15.13;;;-5.40;99.90;;;;;;4960506;28;20046;-77
2024/01/11 04:23:55;;;;;;;27.67;13.73;;;-5.40;99.90;;;;;;4960701;28;20049;-77
2024/01/11 04:26:21;;;;;;;32.03;15.50;;;-5.40;99.90;;;;;;4960373;28;20045;-77
2024/01/11 04:28:49;;;;;;;29.80;15.20;;;-5.40;99.90;;;;;;4961047;28;20045;-76
2024/01/11 04:31:18;;;;;;;29.80;15.50;;;-5.50;99.90;;;;;;4978242;28;20478;-77
2024/01/11 04:33:46;;;;;;;28.43;14.67;;;-5.50;99.90;;;;;;4979718;28;20057;-76
2024/01/11 04:36:13;;;;;;;33.90;14.50;;;-5.50;99.90;;;;;;4991372;28;20049;-78
2024/01/11 04:38:39;;;;;;;26.60;13.73;;;-5.50;99.90;;;;;;4975857;28;20030;-77
2024/01/11 04:41:10;;;;;;;30.73;15.20;;;-5.50;99.90;;;;;;4976380;28;20379;-78
2024/01/11 04:43:40;;;;;;;34.13;17.53;;;-5.50;99.90;;;;;;4976120;28;20452;-77
2024/01/11 04:46:27;;;;;;;27.20;13.27;;;-5.50;99.90;;;;;;4976184;28;20030;-76
2024/01/11 04:48:53;;;;;;;31.57;15.27;;;-5.60;99.90;;;;;;4973032;28;20054;-74
2024/01/11 04:51:20;;;;;;;34.03;16.63;;;-5.50;99.90;;;;;;4992458;28;20497;-76
2024/01/11 04:53:47;;;;;;;38.00;18.17;;;-5.60;99.90;;;;;;4976142;28;20034;-76
2024/01/11 04:56:17;;;;;;;29.73;15.60;;;-5.50;99.90;;;;;;5006681;28;20085;-77
2024/01/11 04:58:45;;;;;;;29.10;14.07;;;-5.60;99.90;;;;;;4976871;28;20042;-77
2024/01/11 05:01:15;;;;;;;31.03;14.40;;;-5.60;99.90;;;;;;4989374;28;20046;-77
2024/01/11 05:03:46;;;;;;;27.83;14.87;;;-5.60;99.90;;;;;;4991565;28;20030;-76
2024/01/11 05:06:17;;;;;;;25.33;13.30;;;-5.60;99.90;;;;;;5007044;28;20045;-76
2024/01/11 05:08:44;;;;;;;28.43;15.13;;;-5.70;99.90;;;;;;4973020;28;20049;-75
2024/01/11 05:11:18;;;;;;;31.33;15.87;;;-5.60;99.90;;;;;;4975830;28;20502;-76
2024/01/11 05:13:47;;;;;;;30.23;16.90;;;-5.70;99.90;;;;;;4958204;28;20042;-76
2024/01/11 05:16:25;;;;;;;29.97;14.20;;;-5.60;99.90;;;;;;4995755;28;20537;-75
2024/01/11 05:18:52;;;;;;;30.03;15.77;;;-5.70;99.90;;;;;;4978238;28;20037;-76
2024/01/11 05:21:19;;;;;;;37.30;19.13;;;-5.70;99.90;;;;;;4965069;28;20054;-77
2024/01/11 05:23:46;;;;;;;38.30;19.07;;;-5.70;99.90;;;;;;4996296;28;20280;-77
2024/01/11 05:26:14;;;;;;;37.87;19.20;;;-5.70;99.90;;;;;;4979414;28;20042;-78
2024/01/11 05:28:40;;;;;;;42.23;21.77;;;-5.70;99.90;;;;;;4978784;28;20478;-73
2024/01/11 05:31:12;;;;;;;38.93;19.47;;;-5.70;99.90;;;;;;4980008;28;20026;-76
2024/01/11 05:33:39;;;;;;;32.57;15.97;;;-5.70;99.90;;;;;;4978863;28;20031;-77
2024/01/11 05:36:06;;;;;;;30.60;16.80;;;-5.70;99.90;;;;;;4978990;28;20397;-76
2024/01/11 05:38:32;;;;;;;28.07;14.60;;;-5.70;99.90;;;;;;5012489;28;20049;-77
2024/01/11 05:40:59;;;;;;;40.90;20.40;;;-5.70;99.90;;;;;;4981485;28;20042;-76
2024/01/11 05:43:25;;;;;;;42.03;21.73;;;-5.70;99.90;;;;;;4979777;28;20039;-78
2024/01/11 05:45:51;;;;;;;49.97;24.77;;;-5.80;99.90;;;;;;4978954;28;20046;-76
2024/01/11 05:48:18;;;;;;;35.80;18.47;;;-5.70;99.90;;;;;;4962367;28;20038;-78
2024/01/11 05:50:44;;;;;;;32.10;15.97;;;-5.80;99.90;;;;;;4979389;28;20491;-76
2024/01/11 05:53:12;;;;;;;31.53;16.57;;;-5.80;99.90;;;;;;4979381;28;20038;-78
2024/01/11 05:55:39;;;;;;;32.50;16.87;;;-5.80;99.90;;;;;;4978932;28;20042;-79
2024/01/11 05:58:05;;;;;;;35.47;18.23;;;-5.80;99.90;;;;;;4994853;28;20038;-80
2024/01/11 06:00:32;;;;;;;36.17;17.00;;;-5.80;99.90;;;;;;4947524;28;20354;-76
2024/01/11 06:02:58;;;;;;;40.87;19.37;;;-5.80;99.90;;;;;;4977539;28;20822;-77
2024/01/11 06:05:25;;;;;;;36.43;19.23;;;-5.80;99.90;;;;;;4994297;28;20033;-77
2024/01/11 06:07:52;;;;;;;33.63;17.10;;;-5.80;99.90;;;;;;4993287;28;20370;-78
2024/01/11 06:10:18;;;;;;;33.77;15.73;;;-5.80;99.90;;;;;;4979375;28;20042;-74
2024/01/11 06:12:44;;;;;;;30.97;14.57;;;-5.80;99.90;;;;;;4994023;28;20018;-78
2024/01/11 06:15:11;;;;;;;28.53;13.80;;;-5.80;99.90;;;;;;4978206;28;20035;-80
2024/01/11 06:17:37;;;;;;;33.57;18.53;;;-5.80;99.90;;;;;;4962487;28;20061;-78
2024/01/11 06:20:05;;;;;;;47.53;24.53;;;-5.80;99.90;;;;;;4994166;28;20061;-78
2024/01/11 06:22:31;;;;;;;38.73;20.10;;;-5.80;99.90;;;;;;5010040;28;20035;-78
2024/01/11 06:24:59;;;;;;;40.57;19.57;;;-5.80;99.90;;;;;;4980306;28;20045;-78
2024/01/11 06:27:25;;;;;;;36.33;18.70;;;-5.80;99.90;;;;;;4977727;28;20030;-76
2024/01/11 06:29:52;;;;;;;35.10;17.13;;;-5.80;99.90;;;;;;4961416;28;20552;-77
2024/01/11 06:32:18;;;;;;;42.27;24.20;;;-5.80;99.90;;;;;;4976508;28;20503;-78
2024/01/11 06:34:45;;;;;;;42.93;21.10;;;-5.80;99.90;;;;;;4995896;28;20030;-78
2024/01/11 06:37:13;;;;;;;35.30;18.23;;;-5.70;99.90;;;;;;4976738;28;20034;-78
2024/01/11 06:39:39;;;;;;;31.97;17.00;;;-5.70;99.90;;;;;;5010911;28;20034;-77
2024/01/11 06:42:05;;;;;;;31.90;17.57;;;-5.70;99.90;;;;;;4977743;28;20038;-78
2024/01/11 06:44:32;;;;;;;47.70;22.90;;;-5.70;99.90;;;;;;4978132;28;20035;-78
2024/01/11 06:46:58;;;;;;;40.50;20.20;;;-5.70;99.90;;;;;;4977861;28;20313;-78
2024/01/11 06:49:24;;;;;;;36.23;19.20;;;-5.70;99.90;;;;;;4980567;28;20030;-75
2024/01/11 06:51:51;;;;;;;41.67;21.77;;;-5.70;99.90;;;;;;4962086;28;20042;-77
2024/01/11 06:54:18;;;;;;;42.53;19.53;;;-5.70;99.90;;;;;;4993975;28;20053;-76
2024/01/11 06:56:44;;;;;;;42.63;22.60;;;-5.70;99.90;;;;;;4962320;28;20065;-75
2024/01/11 06:59:11;;;;;;;55.10;27.97;;;-5.70;99.90;;;;;;4977282;28;20039;-76
2024/01/11 07:01:37;;;;;;;46.57;24.40;;;-5.70;99.90;;;;;;4979440;28;20042;-76
2024/01/11 07:04:04;;;;;;;42.70;22.50;;;-5.70;99.90;;;;;;4947271;28;20069;-76
2024/01/11 07:06:30;;;;;;;45.43;23.67;;;-5.60;99.90;;;;;;4993643;28;20035;-75
2024/01/11 07:08:56;;;;;;;45.33;24.77;;;-5.70;99.90;;;;;;4974299;28;20405;-77
2024/01/11 07:11:23;;;;;;;45.90;24.47;;;-5.70;99.90;;;;;;4960824;28;20041;-75
2024/01/11 07:13:49;;;;;;;41.07;20.80;;;-5.60;99.90;;;;;;4961241;28;20417;-75
2024/01/11 07:16:15;;;;;;;32.50;17.97;;;-5.60;99.90;;;;;;5010113;28;20033;-76
2024/01/11 07:18:42;;;;;;;41.03;23.07;;;-5.60;99.90;;;;;;4976296;28;20041;-76
2024/01/11 07:21:09;;;;;;;36.00;18.97;;;-5.60;99.90;;;;;;4979745;28;20046;-77
2024/01/11 07:23:36;;;;;;;32.30;18.43;;;-5.60;99.90;;;;;;4976410;28;20045;-80
2024/01/11 07:26:02;;;;;;;32.93;17.67;;;-5.60;99.90;;;;;;4974910;28;20042;-78
2024/01/11 07:28:29;;;;;;;28.83;15.40;;;-5.60;99.90;;;;;;4959009;28;21537;-77
2024/01/11 07:30:55;;;;;;;26.43;13.67;;;-5.60;99.90;;;;;;4960913;28;20480;-77
2024/01/11 07:33:22;;;;;;;27.17;13.47;;;-5.60;99.90;;;;;;4975571;28;20803;-77
2024/01/11 07:35:48;;;;;;;31.17;17.20;;;-5.60;99.90;;;;;;4974406;28;20041;-76
2024/01/11 07:38:15;;;;;;;30.97;17.23;;;-5.60;99.90;;;;;;4989943;28;20045;-76
2024/01/11 07:40:42;;;;;;;32.93;17.30;;;-5.50;99.90;;;;;;4975581;28;20033;-75
2024/01/11 07:43:08;;;;;;;34.03;18.13;;;-5.60;99.90;;;;;;4977810;28;20042;-75
2024/01/11 07:45:35;;;;;;;34.43;18.87;;;-5.60;99.90;;;;;;4992815;28;20061;-76
2024/01/11 07:48:03;;;;;;;41.63;21.13;;;-5.60;99.90;;;;;;4977190;28;20041;-76
2024/01/11 07:50:30;;;;;;;43.37;22.40;;;-5.60;99.90;;;;;;4976771;28;20034;-75
2024/01/11 07:52:56;;;;;;;37.57;20.00;;;-5.60;99.90;;;;;;4959986;28;20053;-77
2024/01/11 07:55:23;;;;;;;41.43;20.80;;;-5.50;99.90;;;;;;5010122;28;20041;-77
2024/01/11 07:57:50;;;;;;;34.63;18.83;;;-5.50;99.90;;;;;;4991615;28;21457;-77
2024/01/11 08:00:16;;;;;;;35.73;19.73;;;-5.60;99.90;;;;;;4977324;28;20034;-76
2024/01/11 08:02:42;;;;;;;34.20;18.70;;;-5.50;99.90;;;;;;4958581;28;20073;-77
2024/01/11 08:05:09;;;;;;;38.63;20.37;;;-5.50;99.90;;;;;;4991125;28;20057;-76
2024/01/11 08:07:36;;;;;;;37.70;20.67;;;-5.50;99.90;;;;;;4969262;28;20034;-75
2024/01/11 08:10:04;;;;;;;41.33;22.63;;;-5.40;99.90;;;;;;4974436;28;20042;-75
2024/01/11 08:12:30;;;;;;;43.47;24.50;;;-5.40;99.90;;;;;;5009388;28;20391;-77
2024/01/11 08:14:57;;;;;;;46.63;25.10;;;-5.40;99.90;;;;;;4978482;28;20034;-76
2024/01/11 08:17:23;;;;;;;43.07;23.63;;;-5.30;99.90;;;;;;5008958;28;20102;-77
2024/01/11 08:19:49;;;;;;;42.20;21.57;;;-5.40;99.90;;;;;;4992092;28;20402;-77
2024/01/11 08:22:15;;;;;;;41.73;21.60;;;-5.30;99.90;;;;;;5010278;28;21133;-77
2024/01/11 08:24:42;;;;;;;39.73;21.27;;;-5.20;99.90;;;;;;5008468;28;20462;-76
2024/01/11 08:27:08;;;;;;;43.23;23.50;;;-5.20;99.90;;;;;;4977420;28;20512;-77
2024/01/11 08:29:35;;;;;;;44.20;23.87;;;-5.20;99.90;;;;;;4945718;28;20490;-76
2024/01/11 08:32:04;;;;;;;43.60;23.23;;;-5.10;99.90;;;;;;4978056;28;20022;-77
2024/01/11 08:34:30;;;;;;;41.60;22.77;;;-5.10;99.90;;;;;;4979827;28;20030;-75
2024/01/11 08:36:56;;;;;;;40.20;21.93;;;-5.10;99.90;;;;;;4960614;28;20030;-73
2024/01/11 08:39:23;;;;;;;37.97;20.93;;;-5.10;99.90;;;;;;4960051;28;20482;-75
2024/01/11 08:41:49;;;;;;;53.03;26.93;;;-5.00;99.90;;;;;;4992306;28;20049;-76
2024/01/11 08:44:16;;;;;;;44.93;23.37;;;-4.90;99.90;;;;;;4988730;28;20046;-74
2024/01/11 08:46:43;;;;;;;60.47;31.97;;;-4.80;99.90;;;;;;4972155;28;20038;-78
2024/01/11 08:49:10;;;;;;;56.13;29.53;;;-4.70;99.90;;;;;;4975933;28;21098;-78
2024/01/11 08:51:36;;;;;;;49.63;26.90;;;-4.70;99.90;;;;;;4981317;28;20038;-77
2024/01/11 08:54:04;;;;;;;51.83;25.23;;;-4.50;99.90;;;;;;4996856;28;20042;-79
2024/01/11 08:56:30;;;;;;;50.07;26.73;;;-4.50;99.90;;;;;;4978377;28;20390;-78
2024/01/11 08:58:58;;;;;;;56.87;31.00;;;-4.40;99.90;;;;;;4981270;28;20026;-79
2024/01/11 09:01:25;;;;;;;54.23;28.60;;;-4.30;99.90;;;;;;4997359;28;20034;-76
2024/01/11 09:03:52;;;;;;;52.93;29.77;;;-4.20;99.90;;;;;;4980682;28;20145;-76
2024/01/11 09:06:18;;;;;;;51.13;27.67;;;-4.10;99.90;;;;;;4963553;28;20849;-76
2024/01/11 09:08:45;;;;;;;47.73;24.27;;;-4.10;99.90;;;;;;4980272;28;20493;-77
2024/01/11 09:11:11;;;;;;;62.20;31.27;;;-4.00;99.90;;;;;;5014619;28;20406;-74
2024/01/11 09:13:37;;;;;;;59.83;31.80;;;-3.90;99.90;;;;;;4980258;28;20041;-75
2024/01/11 09:16:04;;;;;;;53.87;28.33;;;-3.80;99.90;;;;;;4978444;28;20493;-75
2024/01/11 09:18:30;;;;;;;59.57;32.80;;;-3.80;99.90;;;;;;5012608;28;20034;-74
2024/01/11 09:20:57;;;;;;;58.77;31.67;;;-3.80;99.90;;;;;;4963147;28;20034;-76
2024/01/11 09:23:23;;;;;;;60.37;30.33;;;-3.70;99.90;;;;;;4996700;28;20505;-76
2024/01/11 09:25:49;;;;;;;52.43;28.13;;;-3.70;99.90;;;;;;4981561;28;20034;-76
2024/01/11 09:28:16;;;;;;;58.97;30.37;;;-3.60;99.90;;;;;;4996272;28;20037;-75
2024/01/11 09:30:42;;;;;;;54.17;30.23;;;-3.60;99.90;;;;;;4979380;28;20050;-75
2024/01/11 09:33:09;;;;;;;50.77;27.73;;;-3.60;99.90;;;;;;4978520;28;20031;-76
2024/01/11 09:35:35;;;;;;;59.37;32.20;;;-3.60;99.90;;;;;;4979635;28;20034;-76
2024/01/11 09:38:02;;;;;;;55.30;29.63;;;-3.50;99.90;;;;;;4994013;28;20037;-75
2024/01/11 09:40:28;;;;;;;48.20;25.50;;;-3.50;99.90;;;;;;4980997;28;20828;-79
2024/01/11 09:42:54;;;;;;;52.90;28.87;;;-3.40;99.90;;;;;;5011520;28;20034;-75
2024/01/11 09:45:21;;;;;;;55.70;30.07;;;-3.30;99.90;;;;;;4979783;28;20401;-76
2024/01/11 09:47:50;;;;;;;55.07;28.97;;;-3.30;99.90;;;;;;4995999;28;20394;-76
2024/01/11 09:50:17;;;;;;;62.73;31.53;;;-3.20;99.90;;;;;;4980012;28;20034;-76
2024/01/11 09:52:48;;;;;;;54.73;30.07;;;-3.10;99.90;;;;;;4980937;28;20034;-76
2024/01/11 09:55:16;;;;;;;49.67;27.13;;;-3.10;99.90;;;;;;4964278;28;20489;-76
2024/01/11 09:57:48;;;;;;;53.13;28.87;;;-2.90;99.90;;;;;;4992876;28;20527;-75
2024/01/11 10:00:21;;;;;;;51.57;28.87;;;-2.80;99.90;;;;;;4964305;28;20045;-76
2024/01/11 10:02:48;;;;;;;50.77;28.10;;;-2.60;99.90;;;;;;4996272;28;20401;-77
2024/01/11 10:05:17;;;;;;;53.13;28.87;;;-2.50;99.90;;;;;;4980453;28;20443;-75
2024/01/11 10:07:43;;;;;;;48.43;27.83;;;-2.30;99.90;;;;;;4992405;28;20039;-76
2024/01/11 10:10:10;;;;;;;53.50;29.23;;;-2.00;99.90;;;;;;4947042;28;20039;-76
2024/01/11 10:12:37;;;;;;;48.33;27.70;;;-1.70;99.90;;;;;;4978331;28;20030;-76
2024/01/11 10:15:09;;;;;;;47.27;26.80;;;-1.50;99.90;;;;;;4977089;28;20311;-77
2024/01/11 10:17:40;;;;;;;47.08;28.38;;;-1.20;99.90;;;;;;4996023;28;20053;-76
2024/01/11 10:20:10;;;;;;;44.93;26.73;;;-0.90;99.90;;;;;;4976478;28;20544;-76
2024/01/11 10:22:36;;;;;;;40.97;24.03;;;-0.50;99.90;;;;;;4978197;28;20045;-76
2024/01/11 10:25:13;;;;;;;51.37;30.07;;;-0.20;99.90;;;;;;4961728;28;20045;-76
2024/01/11 10:27:45;;;;;;;44.07;26.03;;;0.00;99.90;;;;;;4993893;28;20034;-77
2024/01/11 10:30:26;;;;;;;39.80;24.80;;;0.00;99.90;;;;;;4993564;28;20041;-77
2024/01/11 10:32:52;;;;;;;40.30;24.70;;;-0.10;99.90;;;;;;4978824;28;20045;-77
2024/01/11 10:35:19;;;;;;;35.07;19.53;;;-0.10;99.90;;;;;;4994956;28;20738;-77
2024/01/11 10:37:46;;;;;;;34.70;20.97;;;-0.10;99.90;;;;;;5011074;28;20050;-77
2024/01/11 10:40:14;;;;;;;38.10;22.23;;;-0.10;99.90;;;;;;4962943;28;20042;-74
2024/01/11 10:42:45;;;;;;;34.00;18.83;;;-0.20;99.90;;;;;;4978366;28;20049;-77
2024/01/11 10:45:19;;;;;;;34.87;20.40;;;-0.20;99.90;;;;;;4978642;28;20034;-78
2024/01/11 10:47:48;;;;;;;35.27;18.87;;;-0.20;99.90;;;;;;4978395;28;20034;-73
2024/01/11 10:50:16;;;;;;;44.83;22.93;;;-0.30;99.90;;;;;;4980566;28;20031;-77
2024/01/11 10:52:54;;;;;;;35.20;19.97;;;-0.40;99.90;;;;;;4976589;28;20042;-77
2024/01/11 10:55:22;;;;;;;38.80;19.43;;;-0.40;99.90;;;;;;5009551;28;20359;-78
2024/01/11 10:57:50;;;;;;;40.97;19.00;;;-0.50;99.90;;;;;;4961169;28;20468;-78
2024/01/11 11:00:18;;;;;;;27.83;14.37;;;-0.50;99.90;;;;;;4946338;28;20053;-79
2024/01/11 11:02:46;;;;;;;28.97;15.83;;;-0.50;99.90;;;;;;4979299;28;20027;-79
2024/01/11 11:05:14;;;;;;;29.27;14.70;;;-0.50;99.90;;;;;;4981156;28;20470;-78
2024/01/11 11:07:41;;;;;;;33.17;16.33;;;-0.50;99.90;;;;;;4978013;28;20037;-77
2024/01/11 11:10:08;;;;;;;27.17;13.03;;;-0.50;99.90;;;;;;4977538;28;20046;-79
2024/01/11 11:12:37;;;;;;;32.73;16.10;;;-0.50;99.90;;;;;;4959908;28;20026;-78
2024/01/11 11:15:06;;;;;;;36.60;16.23;;;-0.50;99.90;;;;;;4979648;28;20563;-78
2024/01/11 11:17:32;;;;;;;31.87;15.30;;;-0.50;99.90;;;;;;4995453;28;20159;-78
2024/01/11 11:19:59;;;;;;;32.77;15.97;;;-0.50;99.90;;;;;;4979411;28;20041;-79
2024/01/11 11:22:27;;;;;;;42.00;19.03;;;-0.50;99.90;;;;;;4980183;28;20376;-78
2024/01/11 11:25:05;;;;;;;38.07;17.53;;;-0.50;99.90;;;;;;4980143;28;20057;-76
2024/01/11 11:27:32;;;;;;;35.97;15.83;;;-0.50;99.90;;;;;;5010765;28;20027;-79
2024/01/11 11:29:58;;;;;;;35.40;15.87;;;-0.50;99.90;;;;;;4980412;28;20034;-80
2024/01/11 11:32:38;;;;;;;41.03;17.80;;;-0.40;99.90;;;;;;4961315;28;20045;-76
2024/01/11 11:35:08;;;;;;;33.33;15.23;;;-0.40;99.90;;;;;;4979129;28;20038;-79
2024/01/11 11:37:38;;;;;;;36.03;16.27;;;-0.30;99.90;;;;;;4979420;28;20934;-79
2024/01/11 11:40:07;;;;;;;35.97;15.93;;;-0.30;99.90;;;;;;4959853;28;20030;-76
2024/01/11 11:42:37;;;;;;;36.57;16.73;;;-0.20;99.90;;;;;;4961233;28;20038;-78
2024/01/11 11:45:04;;;;;;;39.23;17.23;;;-0.20;99.90;;;;;;4977355;28;20393;-79
2024/01/11 11:47:37;;;;;;;34.77;15.77;;;-0.10;99.90;;;;;;5010100;28;20508;-76
2024/01/11 11:50:07;;;;;;;;;;;0.00;99.90;;;;;;4996812;28;20737;-77
2024/01/11 11:52:37;;;;;;;40.57;17.77;;;0.00;99.90;;;;;;4962080;28;19912;-80
2024/01/11 11:55:06;;;;;;;38.60;16.23;;;0.10;99.90;;;;;;4979021;28;20037;-79
2024/01/11 11:57:35;;;;;;;34.90;14.83;;;0.10;99.90;;;;;;4976970;28;20053;-76
2024/01/11 12:00:06;;;;;;;41.07;18.27;;;0.10;99.90;;;;;;4961496;28;20030;-75
2024/01/11 12:02:38;;;;;;;51.30;20.97;;;0.20;99.90;;;;;;4978076;28;20376;-79
2024/01/11 12:05:04;;;;;;;42.23;18.07;;;0.20;99.90;;;;;;4978428;28;20026;-79
2024/01/11 12:07:31;;;;;;;30.50;15.10;;;0.20;99.90;;;;;;4979474;28;20045;-80
2024/01/11 12:09:58;;;;;;;34.87;16.27;;;0.30;99.90;;;;;;4992719;28;20481;-77
2024/01/11 12:12:24;;;;;;;32.33;14.63;;;0.30;99.90;;;;;;4969436;28;20018;-82
2024/01/11 12:14:53;;;;;;;36.80;16.20;;;0.40;99.90;;;;;;5003639;28;20054;-76
2024/01/11 12:17:19;;;;;;;26.37;14.13;;;0.50;99.90;;;;;;4977768;28;20030;-83
2024/01/11 12:19:45;;;;;;;44.77;19.90;;;0.60;99.90;;;;;;4979353;28;20341;-82
2024/01/11 12:22:12;;;;;;;35.50;16.93;;;0.60;99.90;;;;;;4978398;28;20500;-75
2024/01/11 12:24:38;;;;;;;30.27;14.07;;;0.60;99.90;;;;;;4979321;28;20038;-76
2024/01/11 12:27:05;;;;;;;29.73;14.47;;;0.60;99.90;;;;;;4983283;28;20046;-76
2024/01/11 12:29:31;;;;;;;32.30;14.30;;;0.70;99.90;;;;;;4996438;28;20065;-83